sensor_id;sensor_type;location;lat;lon;timestamp;P1;durP1;ratioP1;P2;durP2;ratioP2
21095;SDS011;10706;49.036;12.112;2023-08-24T00:00:41;16.27;;;7.15;;
21095;SDS011;10706;49.036;12.112;2023-08-24T00:03:08;13.98;;;6.57;;
21095;SDS011;10706;49.036;12.112;2023-08-24T00:05:34;15.00;;;6.57;;
21095;SDS011;10706;49.036;12.112;2023-08-24T00:08:02;15.70;;;6.38;;
21095;SDS011;10706;49.036;12.112;2023-08-24T00:10:29;19.05;;;6.97;;
21095;SDS011;10706;49.036;12.112;2023-08-24T00:12:55;16.13;;;7.00;;
21095;SDS011;10706;49.036;12.112;2023-08-24T00:15:21;16.60;;;7.15;;
21095;SDS011;10706;49.036;12.112;2023-08-24T00:17:47;13.07;;;6.25;;
21095;SDS011;10706;49.036;12.112;2023-08-24T00:20:13;16.65;;;6.72;;
21095;SDS011;10706;49.036;12.112;2023-08-24T00:22:39;14.90;;;7.22;;
21095;SDS011;10706;49.036;12.112;2023-08-24T00:25:08;16.00;;;6.43;;
21095;SDS011;10706;49.036;12.112;2023-08-24T00:27:34;13.38;;;6.40;;
21095;SDS011;10706;49.036;12.112;2023-08-24T00:30:04;18.50;;;7.20;;
21095;SDS011;10706;49.036;12.112;2023-08-24T00:32:32;16.88;;;7.68;;
21095;SDS011;10706;49.036;12.112;2023-08-24T00:35:02;15.07;;;6.72;;
21095;SDS011;10706;49.036;12.112;2023-08-24T00:37:34;19.13;;;6.50;;
21095;SDS011;10706;49.036;12.112;2023-08-24T00:40:01;14.50;;;6.93;;
21095;SDS011;10706;49.036;12.112;2023-08-24T00:42:30;14.75;;;6.32;;
21095;SDS011;10706;49.036;12.112;2023-08-24T00:44:56;16.02;;;6.40;;
21095;SDS011;10706;49.036;12.112;2023-08-24T00:47:23;15.88;;;7.25;;
21095;SDS011;10706;49.036;12.112;2023-08-24T00:49:50;16.58;;;7.35;;
21095;SDS011;10706;49.036;12.112;2023-08-24T00:52:16;16.80;;;6.95;;
21095;SDS011;10706;49.036;12.112;2023-08-24T00:54:43;15.82;;;7.90;;
21095;SDS011;10706;49.036;12.112;2023-08-24T00:57:09;14.27;;;7.18;;
21095;SDS011;10706;49.036;12.112;2023-08-24T00:59:36;14.82;;;8.00;;
21095;SDS011;10706;49.036;12.112;2023-08-24T01:02:02;14.77;;;7.03;;
21095;SDS011;10706;49.036;12.112;2023-08-24T01:04:28;17.88;;;8.10;;
21095;SDS011;10706;49.036;12.112;2023-08-24T01:06:53;14.68;;;7.38;;
21095;SDS011;10706;49.036;12.112;2023-08-24T01:09:19;18.23;;;7.43;;
21095;SDS011;10706;49.036;12.112;2023-08-24T01:11:53;16.88;;;7.22;;
21095;SDS011;10706;49.036;12.112;2023-08-24T01:17:24;14.63;;;6.70;;
21095;SDS011;10706;49.036;12.112;2023-08-24T01:19:54;15.27;;;6.93;;
21095;SDS011;10706;49.036;12.112;2023-08-24T01:25:40;15.95;;;6.97;;
21095;SDS011;10706;49.036;12.112;2023-08-24T01:27:46;13.43;;;7.22;;
21095;SDS011;10706;49.036;12.112;2023-08-24T01:30:14;15.45;;;7.45;;
21095;SDS011;10706;49.036;12.112;2023-08-24T01:32:40;15.70;;;6.97;;
21095;SDS011;10706;49.036;12.112;2023-08-24T01:35:08;14.35;;;7.55;;
21095;SDS011;10706;49.036;12.112;2023-08-24T01:37:35;13.32;;;7.03;;
21095;SDS011;10706;49.036;12.112;2023-08-24T01:40:04;17.23;;;7.45;;
21095;SDS011;10706;49.036;12.112;2023-08-24T01:42:34;14.23;;;7.00;;
21095;SDS011;10706;49.036;12.112;2023-08-24T01:45:24;17.15;;;6.50;;
21095;SDS011;10706;49.036;12.112;2023-08-24T01:47:54;12.70;;;7.07;;
21095;SDS011;10706;49.036;12.112;2023-08-24T01:50:21;17.58;;;6.95;;
21095;SDS011;10706;49.036;12.112;2023-08-24T01:52:47;13.55;;;6.53;;
21095;SDS011;10706;49.036;12.112;2023-08-24T01:55:17;15.48;;;7.38;;
21095;SDS011;10706;49.036;12.112;2023-08-24T01:57:44;17.83;;;7.15;;
21095;SDS011;10706;49.036;12.112;2023-08-24T02:00:10;16.60;;;7.20;;
21095;SDS011;10706;49.036;12.112;2023-08-24T02:02:36;16.98;;;6.72;;
21095;SDS011;10706;49.036;12.112;2023-08-24T02:05:03;16.48;;;8.10;;
21095;SDS011;10706;49.036;12.112;2023-08-24T02:07:29;14.48;;;7.07;;
21095;SDS011;10706;49.036;12.112;2023-08-24T02:09:55;17.20;;;7.45;;
21095;SDS011;10706;49.036;12.112;2023-08-24T02:12:21;16.20;;;7.47;;
21095;SDS011;10706;49.036;12.112;2023-08-24T02:14:46;14.57;;;8.00;;
21095;SDS011;10706;49.036;12.112;2023-08-24T02:17:12;15.48;;;7.50;;
21095;SDS011;10706;49.036;12.112;2023-08-24T02:19:39;15.60;;;7.70;;
21095;SDS011;10706;49.036;12.112;2023-08-24T02:22:06;14.15;;;7.72;;
21095;SDS011;10706;49.036;12.112;2023-08-24T02:24:32;19.65;;;8.57;;
21095;SDS011;10706;49.036;12.112;2023-08-24T02:26:59;15.98;;;8.40;;
21095;SDS011;10706;49.036;12.112;2023-08-24T02:29:25;17.52;;;8.35;;
21095;SDS011;10706;49.036;12.112;2023-08-24T02:31:51;17.58;;;8.18;;
21095;SDS011;10706;49.036;12.112;2023-08-24T02:34:17;17.73;;;7.38;;
21095;SDS011;10706;49.036;12.112;2023-08-24T02:36:43;17.58;;;8.13;;
21095;SDS011;10706;49.036;12.112;2023-08-24T02:39:09;18.20;;;7.50;;
21095;SDS011;10706;49.036;12.112;2023-08-24T02:41:35;15.60;;;7.50;;
21095;SDS011;10706;49.036;12.112;2023-08-24T02:44:01;14.52;;;7.63;;
21095;SDS011;10706;49.036;12.112;2023-08-24T02:46:27;16.20;;;7.10;;
21095;SDS011;10706;49.036;12.112;2023-08-24T02:48:53;14.07;;;7.57;;
21095;SDS011;10706;49.036;12.112;2023-08-24T02:51:20;14.52;;;7.53;;
21095;SDS011;10706;49.036;12.112;2023-08-24T02:53:47;18.10;;;7.85;;
21095;SDS011;10706;49.036;12.112;2023-08-24T02:56:16;16.88;;;7.70;;
21095;SDS011;10706;49.036;12.112;2023-08-24T02:58:42;16.23;;;7.45;;
21095;SDS011;10706;49.036;12.112;2023-08-24T03:01:08;18.42;;;7.95;;
21095;SDS011;10706;49.036;12.112;2023-08-24T03:03:34;18.33;;;7.60;;
21095;SDS011;10706;49.036;12.112;2023-08-24T03:06:02;16.90;;;7.78;;
21095;SDS011;10706;49.036;12.112;2023-08-24T03:08:30;15.77;;;7.90;;
21095;SDS011;10706;49.036;12.112;2023-08-24T03:10:58;17.05;;;8.10;;
21095;SDS011;10706;49.036;12.112;2023-08-24T03:13:25;13.38;;;7.80;;
21095;SDS011;10706;49.036;12.112;2023-08-24T03:15:51;16.13;;;8.25;;
21095;SDS011;10706;49.036;12.112;2023-08-24T03:18:17;16.02;;;8.23;;
21095;SDS011;10706;49.036;12.112;2023-08-24T03:20:44;15.73;;;7.63;;
21095;SDS011;10706;49.036;12.112;2023-08-24T03:23:11;15.00;;;7.75;;
21095;SDS011;10706;49.036;12.112;2023-08-24T03:25:39;14.98;;;7.97;;
21095;SDS011;10706;49.036;12.112;2023-08-24T03:28:06;16.27;;;7.70;;
21095;SDS011;10706;49.036;12.112;2023-08-24T03:30:34;16.83;;;8.15;;
21095;SDS011;10706;49.036;12.112;2023-08-24T03:33:02;17.58;;;8.15;;
21095;SDS011;10706;49.036;12.112;2023-08-24T03:35:30;14.07;;;8.25;;
21095;SDS011;10706;49.036;12.112;2023-08-24T03:37:56;16.67;;;8.75;;
21095;SDS011;10706;49.036;12.112;2023-08-24T03:40:22;15.82;;;7.60;;
21095;SDS011;10706;49.036;12.112;2023-08-24T03:42:48;15.73;;;7.85;;
21095;SDS011;10706;49.036;12.112;2023-08-24T03:45:14;16.35;;;7.57;;
21095;SDS011;10706;49.036;12.112;2023-08-24T03:47:40;13.65;;;7.50;;
21095;SDS011;10706;49.036;12.112;2023-08-24T03:50:06;21.35;;;8.13;;
21095;SDS011;10706;49.036;12.112;2023-08-24T03:52:32;16.05;;;8.27;;
21095;SDS011;10706;49.036;12.112;2023-08-24T03:54:58;19.88;;;8.45;;
21095;SDS011;10706;49.036;12.112;2023-08-24T03:57:24;14.90;;;7.90;;
21095;SDS011;10706;49.036;12.112;2023-08-24T03:59:50;15.18;;;7.90;;
21095;SDS011;10706;49.036;12.112;2023-08-24T04:02:16;17.40;;;8.48;;
21095;SDS011;10706;49.036;12.112;2023-08-24T04:04:41;17.80;;;8.35;;
21095;SDS011;10706;49.036;12.112;2023-08-24T04:07:07;19.25;;;8.60;;
21095;SDS011;10706;49.036;12.112;2023-08-24T04:09:33;17.00;;;8.13;;
21095;SDS011;10706;49.036;12.112;2023-08-24T04:11:58;15.70;;;8.05;;
21095;SDS011;10706;49.036;12.112;2023-08-24T04:14:24;18.23;;;8.55;;
21095;SDS011;10706;49.036;12.112;2023-08-24T04:16:50;18.73;;;8.60;;
21095;SDS011;10706;49.036;12.112;2023-08-24T04:19:17;23.23;;;9.05;;
21095;SDS011;10706;49.036;12.112;2023-08-24T04:21:42;18.73;;;8.70;;
21095;SDS011;10706;49.036;12.112;2023-08-24T04:24:08;18.27;;;8.52;;
21095;SDS011;10706;49.036;12.112;2023-08-24T04:26:34;17.40;;;8.98;;
21095;SDS011;10706;49.036;12.112;2023-08-24T04:29:00;16.33;;;8.32;;
21095;SDS011;10706;49.036;12.112;2023-08-24T04:31:25;16.30;;;8.73;;
21095;SDS011;10706;49.036;12.112;2023-08-24T04:33:51;16.67;;;8.43;;
21095;SDS011;10706;49.036;12.112;2023-08-24T04:36:17;16.25;;;8.25;;
21095;SDS011;10706;49.036;12.112;2023-08-24T04:38:42;17.52;;;8.98;;
21095;SDS011;10706;49.036;12.112;2023-08-24T04:41:09;22.52;;;8.63;;
21095;SDS011;10706;49.036;12.112;2023-08-24T04:43:36;16.40;;;8.18;;
21095;SDS011;10706;49.036;12.112;2023-08-24T04:46:01;18.95;;;8.45;;
21095;SDS011;10706;49.036;12.112;2023-08-24T04:48:27;21.40;;;8.90;;
21095;SDS011;10706;49.036;12.112;2023-08-24T04:50:59;18.40;;;8.55;;
21095;SDS011;10706;49.036;12.112;2023-08-24T04:53:26;19.17;;;9.10;;
21095;SDS011;10706;49.036;12.112;2023-08-24T04:55:53;17.33;;;8.40;;
21095;SDS011;10706;49.036;12.112;2023-08-24T04:58:19;18.88;;;8.32;;
21095;SDS011;10706;49.036;12.112;2023-08-24T05:00:45;17.77;;;8.02;;
21095;SDS011;10706;49.036;12.112;2023-08-24T05:03:11;22.25;;;8.63;;
21095;SDS011;10706;49.036;12.112;2023-08-24T05:05:38;16.33;;;8.75;;
21095;SDS011;10706;49.036;12.112;2023-08-24T05:08:04;19.27;;;8.57;;
21095;SDS011;10706;49.036;12.112;2023-08-24T05:10:34;26.13;;;8.98;;
21095;SDS011;10706;49.036;12.112;2023-08-24T05:13:07;15.55;;;8.52;;
21095;SDS011;10706;49.036;12.112;2023-08-24T05:15:33;17.92;;;9.15;;
21095;SDS011;10706;49.036;12.112;2023-08-24T05:17:58;15.38;;;8.50;;
21095;SDS011;10706;49.036;12.112;2023-08-24T05:20:27;17.20;;;8.75;;
21095;SDS011;10706;49.036;12.112;2023-08-24T05:22:56;16.42;;;8.73;;
21095;SDS011;10706;49.036;12.112;2023-08-24T05:25:22;17.13;;;9.13;;
21095;SDS011;10706;49.036;12.112;2023-08-24T05:27:51;20.27;;;8.57;;
21095;SDS011;10706;49.036;12.112;2023-08-24T05:30:17;21.10;;;8.32;;
21095;SDS011;10706;49.036;12.112;2023-08-24T05:32:44;19.15;;;10.15;;
21095;SDS011;10706;49.036;12.112;2023-08-24T05:35:28;15.10;;;8.60;;
21095;SDS011;10706;49.036;12.112;2023-08-24T05:37:53;16.92;;;8.60;;
21095;SDS011;10706;49.036;12.112;2023-08-24T05:40:19;15.68;;;8.25;;
21095;SDS011;10706;49.036;12.112;2023-08-24T05:42:45;17.23;;;8.70;;
21095;SDS011;10706;49.036;12.112;2023-08-24T05:45:11;17.73;;;7.97;;
21095;SDS011;10706;49.036;12.112;2023-08-24T05:47:37;17.65;;;8.00;;
21095;SDS011;10706;49.036;12.112;2023-08-24T05:50:03;16.25;;;8.43;;
21095;SDS011;10706;49.036;12.112;2023-08-24T05:52:29;14.63;;;8.40;;
21095;SDS011;10706;49.036;12.112;2023-08-24T05:54:54;15.30;;;7.18;;
21095;SDS011;10706;49.036;12.112;2023-08-24T05:57:20;19.23;;;9.10;;
21095;SDS011;10706;49.036;12.112;2023-08-24T05:59:46;16.17;;;7.32;;
21095;SDS011;10706;49.036;12.112;2023-08-24T06:02:12;18.40;;;8.40;;
21095;SDS011;10706;49.036;12.112;2023-08-24T06:04:38;18.25;;;8.75;;
21095;SDS011;10706;49.036;12.112;2023-08-24T06:07:03;19.00;;;8.95;;
21095;SDS011;10706;49.036;12.112;2023-08-24T06:09:29;22.77;;;8.57;;
21095;SDS011;10706;49.036;12.112;2023-08-24T06:11:56;17.88;;;8.18;;
21095;SDS011;10706;49.036;12.112;2023-08-24T06:14:22;17.17;;;7.82;;
21095;SDS011;10706;49.036;12.112;2023-08-24T06:16:48;17.52;;;7.45;;
21095;SDS011;10706;49.036;12.112;2023-08-24T06:19:14;15.25;;;7.82;;
21095;SDS011;10706;49.036;12.112;2023-08-24T06:21:39;14.90;;;7.60;;
21095;SDS011;10706;49.036;12.112;2023-08-24T06:24:05;18.83;;;7.60;;
21095;SDS011;10706;49.036;12.112;2023-08-24T06:26:31;14.05;;;7.45;;
21095;SDS011;10706;49.036;12.112;2023-08-24T06:28:57;12.63;;;6.90;;
21095;SDS011;10706;49.036;12.112;2023-08-24T06:31:22;15.68;;;7.30;;
21095;SDS011;10706;49.036;12.112;2023-08-24T06:33:48;16.40;;;8.07;;
21095;SDS011;10706;49.036;12.112;2023-08-24T06:36:14;17.40;;;7.80;;
21095;SDS011;10706;49.036;12.112;2023-08-24T06:38:40;17.83;;;7.18;;
21095;SDS011;10706;49.036;12.112;2023-08-24T06:41:06;18.23;;;7.43;;
21095;SDS011;10706;49.036;12.112;2023-08-24T06:43:36;14.75;;;7.10;;
21095;SDS011;10706;49.036;12.112;2023-08-24T06:46:04;14.27;;;7.43;;
21095;SDS011;10706;49.036;12.112;2023-08-24T06:48:33;14.90;;;6.38;;
21095;SDS011;10706;49.036;12.112;2023-08-24T06:51:00;17.45;;;7.22;;
21095;SDS011;10706;49.036;12.112;2023-08-24T06:53:25;15.20;;;6.50;;
21095;SDS011;10706;49.036;12.112;2023-08-24T06:55:55;17.25;;;6.95;;
21095;SDS011;10706;49.036;12.112;2023-08-24T06:58:22;21.25;;;7.35;;
21095;SDS011;10706;49.036;12.112;2023-08-24T07:00:47;14.07;;;5.85;;
21095;SDS011;10706;49.036;12.112;2023-08-24T07:03:16;11.95;;;6.32;;
21095;SDS011;10706;49.036;12.112;2023-08-24T07:05:44;19.70;;;6.68;;
21095;SDS011;10706;49.036;12.112;2023-08-24T07:08:11;13.50;;;6.65;;
21095;SDS011;10706;49.036;12.112;2023-08-24T07:10:38;16.83;;;5.88;;
21095;SDS011;10706;49.036;12.112;2023-08-24T07:13:04;13.45;;;6.20;;
21095;SDS011;10706;49.036;12.112;2023-08-24T07:15:32;14.88;;;5.85;;
21095;SDS011;10706;49.036;12.112;2023-08-24T07:18:00;11.70;;;5.03;;
21095;SDS011;10706;49.036;12.112;2023-08-24T07:20:27;12.85;;;5.65;;
21095;SDS011;10706;49.036;12.112;2023-08-24T07:22:52;12.05;;;5.90;;
21095;SDS011;10706;49.036;12.112;2023-08-24T07:25:19;15.75;;;5.35;;
21095;SDS011;10706;49.036;12.112;2023-08-24T07:27:48;12.25;;;6.05;;
21095;SDS011;10706;49.036;12.112;2023-08-24T07:30:14;9.93;;;4.65;;
21095;SDS011;10706;49.036;12.112;2023-08-24T07:32:40;13.23;;;4.57;;
21095;SDS011;10706;49.036;12.112;2023-08-24T07:35:06;13.82;;;5.03;;
21095;SDS011;10706;49.036;12.112;2023-08-24T07:37:32;14.48;;;4.70;;
21095;SDS011;10706;49.036;12.112;2023-08-24T07:39:58;14.73;;;4.70;;
21095;SDS011;10706;49.036;12.112;2023-08-24T07:42:24;14.88;;;4.50;;
21095;SDS011;10706;49.036;12.112;2023-08-24T07:44:50;14.98;;;4.00;;
21095;SDS011;10706;49.036;12.112;2023-08-24T07:47:16;15.23;;;4.00;;
21095;SDS011;10706;49.036;12.112;2023-08-24T07:49:41;16.02;;;3.88;;
21095;SDS011;10706;49.036;12.112;2023-08-24T07:52:13;17.85;;;3.65;;
21095;SDS011;10706;49.036;12.112;2023-08-24T07:54:39;10.40;;;3.53;;
21095;SDS011;10706;49.036;12.112;2023-08-24T07:57:05;13.43;;;3.78;;
21095;SDS011;10706;49.036;12.112;2023-08-24T07:59:31;11.63;;;3.55;;
21095;SDS011;10706;49.036;12.112;2023-08-24T08:01:57;7.15;;;3.22;;
21095;SDS011;10706;49.036;12.112;2023-08-24T08:04:23;8.68;;;3.10;;
21095;SDS011;10706;49.036;12.112;2023-08-24T08:06:48;16.00;;;3.80;;
21095;SDS011;10706;49.036;12.112;2023-08-24T08:09:14;9.02;;;3.83;;
21095;SDS011;10706;49.036;12.112;2023-08-24T08:11:41;15.32;;;4.38;;
21095;SDS011;10706;49.036;12.112;2023-08-24T08:14:08;11.25;;;3.63;;
21095;SDS011;10706;49.036;12.112;2023-08-24T08:16:34;9.20;;;3.53;;
21095;SDS011;10706;49.036;12.112;2023-08-24T08:19:01;10.93;;;4.15;;
21095;SDS011;10706;49.036;12.112;2023-08-24T08:21:27;13.93;;;3.75;;
21095;SDS011;10706;49.036;12.112;2023-08-24T08:23:53;10.30;;;3.70;;
21095;SDS011;10706;49.036;12.112;2023-08-24T08:26:18;7.65;;;3.38;;
21095;SDS011;10706;49.036;12.112;2023-08-24T08:28:44;15.70;;;4.60;;
21095;SDS011;10706;49.036;12.112;2023-08-24T08:31:10;13.55;;;3.58;;
21095;SDS011;10706;49.036;12.112;2023-08-24T08:33:36;11.57;;;3.53;;
21095;SDS011;10706;49.036;12.112;2023-08-24T08:36:01;10.93;;;3.13;;
21095;SDS011;10706;49.036;12.112;2023-08-24T08:38:28;12.48;;;4.10;;
21095;SDS011;10706;49.036;12.112;2023-08-24T08:40:54;10.30;;;3.55;;
21095;SDS011;10706;49.036;12.112;2023-08-24T08:43:26;12.23;;;3.35;;
21095;SDS011;10706;49.036;12.112;2023-08-24T08:45:52;10.10;;;2.97;;
21095;SDS011;10706;49.036;12.112;2023-08-24T08:48:20;7.90;;;2.88;;
21095;SDS011;10706;49.036;12.112;2023-08-24T08:50:51;11.10;;;3.30;;
21095;SDS011;10706;49.036;12.112;2023-08-24T08:53:22;9.55;;;3.30;;
21095;SDS011;10706;49.036;12.112;2023-08-24T08:55:49;15.13;;;3.38;;
21095;SDS011;10706;49.036;12.112;2023-08-24T08:58:18;10.20;;;3.38;;
21095;SDS011;10706;49.036;12.112;2023-08-24T09:00:46;10.25;;;3.20;;
21095;SDS011;10706;49.036;12.112;2023-08-24T09:03:18;15.57;;;3.50;;
21095;SDS011;10706;49.036;12.112;2023-08-24T09:05:44;9.65;;;3.15;;
21095;SDS011;10706;49.036;12.112;2023-08-24T09:08:15;11.45;;;3.20;;
21095;SDS011;10706;49.036;12.112;2023-08-24T09:10:42;13.23;;;3.30;;
21095;SDS011;10706;49.036;12.112;2023-08-24T09:13:09;11.35;;;3.33;;
21095;SDS011;10706;49.036;12.112;2023-08-24T09:15:35;12.52;;;3.25;;
21095;SDS011;10706;49.036;12.112;2023-08-24T09:18:01;5.75;;;3.03;;
21095;SDS011;10706;49.036;12.112;2023-08-24T09:20:28;11.52;;;3.08;;
21095;SDS011;10706;49.036;12.112;2023-08-24T09:22:57;10.27;;;2.85;;
21095;SDS011;10706;49.036;12.112;2023-08-24T09:25:24;7.60;;;2.80;;
21095;SDS011;10706;49.036;12.112;2023-08-24T09:27:59;11.65;;;3.05;;
21095;SDS011;10706;49.036;12.112;2023-08-24T09:30:30;7.35;;;3.00;;
21095;SDS011;10706;49.036;12.112;2023-08-24T09:33:10;9.68;;;2.88;;
21095;SDS011;10706;49.036;12.112;2023-08-24T09:35:36;11.60;;;2.97;;
21095;SDS011;10706;49.036;12.112;2023-08-24T09:38:15;7.13;;;2.40;;
21095;SDS011;10706;49.036;12.112;2023-08-24T09:40:45;10.02;;;2.72;;
21095;SDS011;10706;49.036;12.112;2023-08-24T09:43:16;9.63;;;2.40;;
21095;SDS011;10706;49.036;12.112;2023-08-24T09:45:55;9.25;;;2.60;;
21095;SDS011;10706;49.036;12.112;2023-08-24T09:48:21;10.15;;;2.97;;
21095;SDS011;10706;49.036;12.112;2023-08-24T09:50:51;8.68;;;2.75;;
21095;SDS011;10706;49.036;12.112;2023-08-24T09:53:21;11.93;;;3.20;;
21095;SDS011;10706;49.036;12.112;2023-08-24T09:55:51;10.07;;;2.65;;
21095;SDS011;10706;49.036;12.112;2023-08-24T09:58:22;16.98;;;2.55;;
21095;SDS011;10706;49.036;12.112;2023-08-24T10:00:49;6.95;;;2.60;;
21095;SDS011;10706;49.036;12.112;2023-08-24T10:03:18;9.00;;;2.70;;
21095;SDS011;10706;49.036;12.112;2023-08-24T10:05:55;4.88;;;2.30;;
21095;SDS011;10706;49.036;12.112;2023-08-24T10:08:26;13.00;;;2.92;;
21095;SDS011;10706;49.036;12.112;2023-08-24T10:10:57;11.73;;;2.85;;
21095;SDS011;10706;49.036;12.112;2023-08-24T10:15:55;13.15;;;2.97;;
21095;SDS011;10706;49.036;12.112;2023-08-24T10:18:21;6.88;;;2.45;;
21095;SDS011;10706;49.036;12.112;2023-08-24T10:20:49;5.10;;;2.25;;
21095;SDS011;10706;49.036;12.112;2023-08-24T10:23:16;5.57;;;2.40;;
21095;SDS011;10706;49.036;12.112;2023-08-24T10:25:44;8.60;;;2.85;;
21095;SDS011;10706;49.036;12.112;2023-08-24T10:28:11;9.73;;;2.60;;
21095;SDS011;10706;49.036;12.112;2023-08-24T10:30:39;6.40;;;2.58;;
21095;SDS011;10706;49.036;12.112;2023-08-24T10:33:08;8.05;;;2.40;;
21095;SDS011;10706;49.036;12.112;2023-08-24T10:35:36;9.00;;;3.22;;
21095;SDS011;10706;49.036;12.112;2023-08-24T10:38:03;6.43;;;2.50;;
21095;SDS011;10706;49.036;12.112;2023-08-24T10:40:34;6.78;;;2.85;;
21095;SDS011;10706;49.036;12.112;2023-08-24T10:43:02;8.32;;;2.63;;
21095;SDS011;10706;49.036;12.112;2023-08-24T10:48:29;10.05;;;2.47;;
21095;SDS011;10706;49.036;12.112;2023-08-24T10:51:21;5.75;;;2.90;;
21095;SDS011;10706;49.036;12.112;2023-08-24T10:56:36;8.45;;;2.90;;
21095;SDS011;10706;49.036;12.112;2023-08-24T10:59:14;11.63;;;2.92;;
21095;SDS011;10706;49.036;12.112;2023-08-24T11:01:42;6.57;;;2.53;;
21095;SDS011;10706;49.036;12.112;2023-08-24T11:04:17;9.38;;;2.60;;
21095;SDS011;10706;49.036;12.112;2023-08-24T11:06:59;7.30;;;2.45;;
21095;SDS011;10706;49.036;12.112;2023-08-24T11:09:44;9.75;;;2.85;;
21095;SDS011;10706;49.036;12.112;2023-08-24T11:12:14;10.65;;;2.92;;
21095;SDS011;10706;49.036;12.112;2023-08-24T11:14:49;10.55;;;2.85;;
21095;SDS011;10706;49.036;12.112;2023-08-24T11:17:20;13.80;;;3.08;;
21095;SDS011;10706;49.036;12.112;2023-08-24T11:19:48;7.10;;;2.67;;
21095;SDS011;10706;49.036;12.112;2023-08-24T11:22:19;6.53;;;2.60;;
21095;SDS011;10706;49.036;12.112;2023-08-24T11:24:46;6.70;;;2.65;;
21095;SDS011;10706;49.036;12.112;2023-08-24T11:27:12;5.90;;;2.92;;
21095;SDS011;10706;49.036;12.112;2023-08-24T11:29:38;9.27;;;2.75;;
21095;SDS011;10706;49.036;12.112;2023-08-24T11:32:04;9.85;;;2.65;;
21095;SDS011;10706;49.036;12.112;2023-08-24T11:34:30;7.18;;;2.65;;
21095;SDS011;10706;49.036;12.112;2023-08-24T11:36:56;6.72;;;2.50;;
21095;SDS011;10706;49.036;12.112;2023-08-24T11:39:22;10.18;;;2.60;;
21095;SDS011;10706;49.036;12.112;2023-08-24T11:42:00;7.75;;;2.90;;
21095;SDS011;10706;49.036;12.112;2023-08-24T11:44:26;10.32;;;2.50;;
21095;SDS011;10706;49.036;12.112;2023-08-24T11:46:53;10.85;;;2.65;;
21095;SDS011;10706;49.036;12.112;2023-08-24T11:49:23;10.65;;;3.20;;
21095;SDS011;10706;49.036;12.112;2023-08-24T11:51:50;8.10;;;2.60;;
21095;SDS011;10706;49.036;12.112;2023-08-24T11:54:19;13.13;;;2.70;;
21095;SDS011;10706;49.036;12.112;2023-08-24T11:56:46;7.30;;;2.42;;
21095;SDS011;10706;49.036;12.112;2023-08-24T11:59:12;8.38;;;2.60;;
21095;SDS011;10706;49.036;12.112;2023-08-24T12:01:39;6.90;;;2.70;;
21095;SDS011;10706;49.036;12.112;2023-08-24T12:04:07;8.30;;;2.90;;
21095;SDS011;10706;49.036;12.112;2023-08-24T12:06:33;7.97;;;2.28;;
21095;SDS011;10706;49.036;12.112;2023-08-24T12:08:59;7.45;;;2.58;;
21095;SDS011;10706;49.036;12.112;2023-08-24T12:11:25;10.10;;;2.97;;
21095;SDS011;10706;49.036;12.112;2023-08-24T12:13:52;5.18;;;2.50;;
21095;SDS011;10706;49.036;12.112;2023-08-24T12:16:20;7.75;;;2.53;;
21095;SDS011;10706;49.036;12.112;2023-08-24T12:18:52;9.40;;;2.35;;
21095;SDS011;10706;49.036;12.112;2023-08-24T12:21:21;6.13;;;2.15;;
21095;SDS011;10706;49.036;12.112;2023-08-24T12:24:00;5.05;;;2.05;;
21095;SDS011;10706;49.036;12.112;2023-08-24T12:26:31;7.18;;;2.58;;
21095;SDS011;10706;49.036;12.112;2023-08-24T12:29:00;6.07;;;2.20;;
21095;SDS011;10706;49.036;12.112;2023-08-24T12:31:35;11.32;;;2.50;;
21095;SDS011;10706;49.036;12.112;2023-08-24T12:34:03;7.00;;;2.38;;
21095;SDS011;10706;49.036;12.112;2023-08-24T12:36:36;7.53;;;2.70;;
21095;SDS011;10706;49.036;12.112;2023-08-24T12:39:04;7.53;;;2.45;;
21095;SDS011;10706;49.036;12.112;2023-08-24T12:41:31;5.88;;;2.42;;
21095;SDS011;10706;49.036;12.112;2023-08-24T12:43:57;8.60;;;2.70;;
21095;SDS011;10706;49.036;12.112;2023-08-24T12:46:24;7.03;;;2.10;;
21095;SDS011;10706;49.036;12.112;2023-08-24T12:48:52;7.78;;;2.42;;
21095;SDS011;10706;49.036;12.112;2023-08-24T12:51:18;7.00;;;2.38;;
21095;SDS011;10706;49.036;12.112;2023-08-24T12:53:44;7.30;;;2.65;;
21095;SDS011;10706;49.036;12.112;2023-08-24T12:56:09;8.55;;;2.40;;
21095;SDS011;10706;49.036;12.112;2023-08-24T12:58:35;8.75;;;2.67;;
21095;SDS011;10706;49.036;12.112;2023-08-24T13:01:01;7.70;;;2.80;;
21095;SDS011;10706;49.036;12.112;2023-08-24T13:03:27;11.85;;;2.50;;
21095;SDS011;10706;49.036;12.112;2023-08-24T13:05:53;6.70;;;2.35;;
21095;SDS011;10706;49.036;12.112;2023-08-24T13:08:19;6.97;;;2.72;;
21095;SDS011;10706;49.036;12.112;2023-08-24T13:10:45;6.40;;;2.45;;
21095;SDS011;10706;49.036;12.112;2023-08-24T13:13:11;6.45;;;2.55;;
21095;SDS011;10706;49.036;12.112;2023-08-24T13:15:37;4.10;;;2.20;;
21095;SDS011;10706;49.036;12.112;2023-08-24T13:18:03;7.70;;;2.40;;
21095;SDS011;10706;49.036;12.112;2023-08-24T13:20:29;5.93;;;2.40;;
21095;SDS011;10706;49.036;12.112;2023-08-24T13:22:54;8.18;;;2.85;;
21095;SDS011;10706;49.036;12.112;2023-08-24T13:25:20;8.02;;;2.83;;
21095;SDS011;10706;49.036;12.112;2023-08-24T13:27:46;9.23;;;3.03;;
21095;SDS011;10706;49.036;12.112;2023-08-24T13:30:12;6.13;;;2.47;;
21095;SDS011;10706;49.036;12.112;2023-08-24T13:32:38;9.80;;;2.53;;
21095;SDS011;10706;49.036;12.112;2023-08-24T13:35:04;5.72;;;2.25;;
21095;SDS011;10706;49.036;12.112;2023-08-24T13:37:30;6.95;;;2.42;;
21095;SDS011;10706;49.036;12.112;2023-08-24T13:39:57;8.05;;;2.55;;
21095;SDS011;10706;49.036;12.112;2023-08-24T13:42:24;4.50;;;2.38;;
21095;SDS011;10706;49.036;12.112;2023-08-24T13:44:50;8.20;;;2.45;;
21095;SDS011;10706;49.036;12.112;2023-08-24T13:47:16;7.72;;;2.95;;
21095;SDS011;10706;49.036;12.112;2023-08-24T13:49:41;7.72;;;2.63;;
21095;SDS011;10706;49.036;12.112;2023-08-24T13:52:07;7.72;;;2.67;;
21095;SDS011;10706;49.036;12.112;2023-08-24T13:54:33;9.43;;;2.83;;
21095;SDS011;10706;49.036;12.112;2023-08-24T13:56:59;6.00;;;2.92;;
21095;SDS011;10706;49.036;12.112;2023-08-24T13:59:26;9.20;;;3.03;;
21095;SDS011;10706;49.036;12.112;2023-08-24T14:01:52;8.55;;;3.00;;
21095;SDS011;10706;49.036;12.112;2023-08-24T14:04:17;7.07;;;3.20;;
21095;SDS011;10706;49.036;12.112;2023-08-24T14:06:44;11.40;;;3.13;;
21095;SDS011;10706;49.036;12.112;2023-08-24T14:09:10;8.30;;;2.78;;
21095;SDS011;10706;49.036;12.112;2023-08-24T14:11:36;8.02;;;2.92;;
21095;SDS011;10706;49.036;12.112;2023-08-24T14:14:01;8.52;;;2.83;;
21095;SDS011;10706;49.036;12.112;2023-08-24T14:16:27;8.23;;;3.00;;
21095;SDS011;10706;49.036;12.112;2023-08-24T14:18:53;7.13;;;3.30;;
21095;SDS011;10706;49.036;12.112;2023-08-24T14:21:19;9.23;;;3.22;;
21095;SDS011;10706;49.036;12.112;2023-08-24T14:23:50;7.22;;;3.40;;
21095;SDS011;10706;49.036;12.112;2023-08-24T14:26:16;8.80;;;3.20;;
21095;SDS011;10706;49.036;12.112;2023-08-24T14:28:53;6.97;;;3.15;;
21095;SDS011;10706;49.036;12.112;2023-08-24T14:31:22;8.77;;;3.28;;
21095;SDS011;10706;49.036;12.112;2023-08-24T14:33:49;9.80;;;3.30;;
21095;SDS011;10706;49.036;12.112;2023-08-24T14:36:16;13.48;;;3.25;;
21095;SDS011;10706;49.036;12.112;2023-08-24T14:38:42;8.65;;;2.95;;
21095;SDS011;10706;49.036;12.112;2023-08-24T14:41:08;6.88;;;3.10;;